createdAt,value
2022-10-14T00:00:54.306Z,6.12
2022-10-14T00:05:56.357Z,5.55
2022-10-14T00:11:03.237Z,4.87
2022-10-14T00:16:14.739Z,5.75
2022-10-14T00:21:17.802Z,4.85
2022-10-14T00:26:23.144Z,5.68
2022-10-14T00:31:26.956Z,5.35
2022-10-14T00:36:29.092Z,5.47
2022-10-14T00:41:33.749Z,5.10
2022-10-14T00:46:40.955Z,5.15
2022-10-14T00:51:48.761Z,5.45
2022-10-14T00:56:51.666Z,3.85
2022-10-14T01:01:53.912Z,5.97
2022-10-14T01:07:15.344Z,5.50
2022-10-14T01:12:29.906Z,4.72
2022-10-14T01:17:40.981Z,5.30
2022-10-14T01:23:04.939Z,4.93
2022-10-14T01:28:24.738Z,6.65
2022-10-14T01:33:33.495Z,5.00
2022-10-14T01:38:41.101Z,4.32
2022-10-14T01:43:48.528Z,5.22
2022-10-14T01:48:56.538Z,6.22
2022-10-14T01:54:18.859Z,4.95
2022-10-14T01:59:23.038Z,5.50
2022-10-14T02:04:25.408Z,6.10
2022-10-14T02:09:46.317Z,4.78
2022-10-14T02:15:13.446Z,5.50
2022-10-14T02:20:35.328Z,5.18
2022-10-14T02:25:41.378Z,4.62
2022-10-14T02:30:49.144Z,5.97
2022-10-14T02:35:54.637Z,5.10
2022-10-14T02:40:57.907Z,5.75
2022-10-14T02:46:04.622Z,4.72
2022-10-14T02:51:07.217Z,5.18
2022-10-14T02:56:14.097Z,6.50
2022-10-14T03:01:16.181Z,6.18
2022-10-14T03:06:19.117Z,7.05
2022-10-14T03:11:21.755Z,5.62
2022-10-14T03:16:25.376Z,5.60
2022-10-14T03:21:27.696Z,4.85
2022-10-14T03:26:30.071Z,5.72
2022-10-14T03:31:32.284Z,5.22
2022-10-14T03:36:35.327Z,5.20
2022-10-14T03:41:38.623Z,6.03
2022-10-14T03:46:41.210Z,5.93
2022-10-14T03:51:43.331Z,5.90
2022-10-14T03:56:47.135Z,5.65
2022-10-14T04:01:50.809Z,6.62
2022-10-14T04:11:57.850Z,5.23
2022-10-14T04:17:01.245Z,5.80
2022-10-14T04:22:03.541Z,6.47
2022-10-14T04:27:07.824Z,5.80
2022-10-14T04:32:10.489Z,6.03
2022-10-14T04:37:12.717Z,4.97
2022-10-14T04:42:16.323Z,5.37
2022-10-14T04:47:20.075Z,5.72
2022-10-14T04:52:23.974Z,5.60
2022-10-14T04:57:27.134Z,5.80
2022-10-14T05:02:30.156Z,5.03
2022-10-14T05:07:33.137Z,6.05
2022-10-14T05:12:38.717Z,6.68
2022-10-14T05:17:44.415Z,5.25
2022-10-14T05:22:47.497Z,6.18
2022-10-14T05:27:49.761Z,6.47
2022-10-14T05:32:52.794Z,7.47
2022-10-14T05:37:59.528Z,6.25
2022-10-14T05:43:07.040Z,7.72
2022-10-14T05:48:10.646Z,7.47
2022-10-14T05:53:14.105Z,7.78
2022-10-14T05:58:16.696Z,6.70
2022-10-14T06:03:19.411Z,6.93
2022-10-14T06:08:23.330Z,7.47
2022-10-14T06:13:25.919Z,7.60
2022-10-14T06:18:29.838Z,7.43
2022-10-14T06:23:32.371Z,7.68
2022-10-14T06:28:34.793Z,7.85
2022-10-14T06:33:36.983Z,7.47
2022-10-14T06:38:39.056Z,8.60
2022-10-14T06:43:41.222Z,8.60
2022-10-14T06:48:46.880Z,7.53
2022-10-14T06:53:52.373Z,8.75
2022-10-14T06:58:55.438Z,9.52
2022-10-14T07:03:57.950Z,8.90
2022-10-14T07:09:00.092Z,8.10
2022-10-14T07:14:02.238Z,8.95
2022-10-14T07:19:04.350Z,8.27
2022-10-14T07:24:06.741Z,7.80
2022-10-14T07:29:08.938Z,8.50
2022-10-14T07:34:11.128Z,9.38
2022-10-14T07:39:13.706Z,8.52
2022-10-14T07:44:16.837Z,9.27
2022-10-14T07:49:21.062Z,8.07
2022-10-14T07:54:25.698Z,7.12
2022-10-14T07:59:27.854Z,9.27
2022-10-14T08:04:30.079Z,9.93
2022-10-14T08:09:35.487Z,9.43
2022-10-14T08:14:37.947Z,10.23
2022-10-14T08:19:40.062Z,8.98
2022-10-14T08:24:42.235Z,7.22
2022-10-14T08:29:44.331Z,8.05
2022-10-14T08:34:46.372Z,7.85
2022-10-14T08:39:48.454Z,8.15
2022-10-14T08:44:57.216Z,6.60
2022-10-14T08:50:06.777Z,8.90
2022-10-14T08:55:35.505Z,7.05
2022-10-14T09:00:38.906Z,7.28
2022-10-14T09:05:41.125Z,7.30
2022-10-14T09:10:44.021Z,6.75
2022-10-14T09:15:52.984Z,6.50
2022-10-14T09:20:57.363Z,6.03
2022-10-14T09:26:05.646Z,6.43
2022-10-14T09:31:12.318Z,6.53
2022-10-14T09:36:19.259Z,6.53
2022-10-14T09:41:30.712Z,7.05
2022-10-14T09:46:32.860Z,5.22
2022-10-14T09:51:35.215Z,5.32
2022-10-14T09:56:42.453Z,6.15
2022-10-14T10:01:54.228Z,6.78
2022-10-14T10:06:56.611Z,6.30
2022-10-14T10:11:58.624Z,6.50
2022-10-14T10:17:12.625Z,6.45
2022-10-14T10:22:23.882Z,5.90
2022-10-14T10:27:37.159Z,6.25
2022-10-14T10:32:50.324Z,7.60
2022-10-14T10:38:17.428Z,6.87
2022-10-14T10:43:40.481Z,5.93
2022-10-14T10:48:46.463Z,6.20
2022-10-14T10:54:06.521Z,6.78
2022-10-14T10:59:56.213Z,6.40
2022-10-14T11:05:27.670Z,6.50
2022-10-14T11:11:03.195Z,5.55
2022-10-14T11:16:16.025Z,6.68
2022-10-14T11:21:27.128Z,5.45
2022-10-14T11:26:43.360Z,6.10
2022-10-14T11:32:24.669Z,5.68
2022-10-14T11:37:48.223Z,5.32
2022-10-14T11:48:20.330Z,4.03
2022-10-14T11:53:41.957Z,3.40
2022-10-14T11:58:48.530Z,3.20
2022-10-14T12:04:09.315Z,2.90
2022-10-14T12:09:39.389Z,3.22
2022-10-14T12:14:51.645Z,3.33
2022-10-14T12:19:54.325Z,3.05
2022-10-14T12:30:02.693Z,3.45
2022-10-14T12:35:42.995Z,2.92
2022-10-14T12:40:45.906Z,3.25
2022-10-14T12:45:57.754Z,2.72
2022-10-14T12:51:16.434Z,2.80
2022-10-14T12:56:53.109Z,2.75
2022-10-14T13:01:57.996Z,2.65
2022-10-14T13:07:39.750Z,2.65
2022-10-14T13:12:42.360Z,2.40
2022-10-14T13:17:46.705Z,2.75
2022-10-14T13:22:49.402Z,2.30
2022-10-14T13:33:16.147Z,2.45
2022-10-14T13:43:31.163Z,2.33
2022-10-14T13:48:41.152Z,2.30
2022-10-14T13:54:32.749Z,2.78
2022-10-14T13:59:44.553Z,1.90
2022-10-14T14:05:03.262Z,2.30
2022-10-14T14:10:09.720Z,4.65
2022-10-14T14:15:26.837Z,3.67
2022-10-14T14:20:29.645Z,2.97
2022-10-14T14:25:36.106Z,4.40
2022-10-14T14:30:55.077Z,3.97
2022-10-14T14:36:12.076Z,5.55
2022-10-14T14:41:39.249Z,4.15
2022-10-14T14:46:45.262Z,3.80
2022-10-14T14:51:48.086Z,3.72
2022-10-14T14:56:59.663Z,3.65
2022-10-14T15:02:02.865Z,3.35
2022-10-14T15:07:21.522Z,2.80
2022-10-14T15:12:28.106Z,2.95
2022-10-14T15:17:43.052Z,2.40
2022-10-14T15:22:46.966Z,3.55
2022-10-14T15:27:55.817Z,2.92
2022-10-14T15:33:00.730Z,2.67
2022-10-14T15:38:02.951Z,2.35
2022-10-14T15:43:20.218Z,2.12
2022-10-14T15:48:22.280Z,2.97
2022-10-14T15:53:25.489Z,2.15
2022-10-14T15:58:27.591Z,2.35
2022-10-14T16:03:34.769Z,2.03
2022-10-14T16:08:46.507Z,2.30
2022-10-14T16:13:50.650Z,2.10
2022-10-14T16:18:52.832Z,2.72
2022-10-14T16:23:55.308Z,2.30
2022-10-14T16:29:00.145Z,2.70
2022-10-14T16:34:02.366Z,2.15
2022-10-14T16:39:04.653Z,2.80
2022-10-14T16:44:07.617Z,3.00
2022-10-14T16:49:10.096Z,4.43
2022-10-14T16:54:12.200Z,3.58
2022-10-14T16:59:15.408Z,3.55
2022-10-14T17:04:20.671Z,3.05
2022-10-14T17:14:31.090Z,2.53
2022-10-14T17:19:33.185Z,27.25
2022-10-14T17:24:35.236Z,8.93
2022-10-14T17:29:37.377Z,10.70
2022-10-14T17:34:39.408Z,5.53
2022-10-14T17:39:41.490Z,7.60
2022-10-14T17:44:44.014Z,8.07
2022-10-14T17:49:47.071Z,10.95
2022-10-14T17:59:51.505Z,17.25
2022-10-14T18:04:53.559Z,22.23
2022-10-14T18:09:55.677Z,18.27
2022-10-14T18:14:57.741Z,18.52
2022-10-14T18:20:04.035Z,12.02
2022-10-14T18:25:06.553Z,19.92
2022-10-14T18:30:09.972Z,13.30
2022-10-14T18:35:12.058Z,15.85
2022-10-14T18:40:16.846Z,10.80
2022-10-14T18:45:18.833Z,6.22
2022-10-14T18:50:20.874Z,4.10
2022-10-14T18:55:22.956Z,3.28
2022-10-14T19:00:26.738Z,3.25
2022-10-14T19:05:32.932Z,6.47
2022-10-14T19:10:35.394Z,3.78
2022-10-14T19:15:53.687Z,2.50
2022-10-14T19:21:03.802Z,3.47
2022-10-14T19:26:11.096Z,4.82
2022-10-14T19:31:16.583Z,4.32
2022-10-14T19:36:19.747Z,4.00
2022-10-14T19:41:21.810Z,2.33
2022-10-14T19:46:27.445Z,2.08
2022-10-14T19:51:30.560Z,1.50
2022-10-14T19:56:32.627Z,0.90
2022-10-14T20:01:34.815Z,1.52
2022-10-14T20:06:38.472Z,0.90
2022-10-14T20:11:41.375Z,0.75
2022-10-14T20:16:43.498Z,1.20
2022-10-14T20:21:45.561Z,1.80
2022-10-14T20:26:47.640Z,2.12
2022-10-14T20:31:49.768Z,1.00
2022-10-14T20:36:53.230Z,1.10
2022-10-14T20:41:55.684Z,1.48
2022-10-14T20:46:57.870Z,1.15
2022-10-14T20:51:59.983Z,0.85
2022-10-14T20:57:02.056Z,1.00
2022-10-14T21:02:04.105Z,0.62
2022-10-14T21:07:06.198Z,0.83
2022-10-14T21:12:08.208Z,0.80
2022-10-14T21:17:10.197Z,1.40
2022-10-14T21:22:12.300Z,1.12
2022-10-14T21:27:14.357Z,1.15
2022-10-14T21:32:16.454Z,0.82
2022-10-14T21:37:20.226Z,1.15
2022-10-14T21:42:22.585Z,0.70
2022-10-14T21:47:24.866Z,0.57
2022-10-14T21:52:26.944Z,0.73
2022-10-14T21:57:29.015Z,1.23
2022-10-14T22:02:31.053Z,0.70
2022-10-14T22:07:33.111Z,1.15
2022-10-14T22:12:35.149Z,0.65
2022-10-14T22:17:37.147Z,0.57
2022-10-14T22:22:39.146Z,0.70
2022-10-14T22:27:41.201Z,1.00
2022-10-14T22:32:43.512Z,0.80
2022-10-14T22:37:45.583Z,0.47
2022-10-14T22:42:51.300Z,0.47
2022-10-14T22:47:53.685Z,0.30
2022-10-14T22:52:55.704Z,0.60
2022-10-14T22:57:57.785Z,0.47
2022-10-14T23:03:00.291Z,0.30
2022-10-14T23:08:02.496Z,0.30
2022-10-14T23:13:05.767Z,0.43
2022-10-14T23:18:07.813Z,0.30
2022-10-14T23:23:10.407Z,0.30
2022-10-14T23:28:12.655Z,0.37
2022-10-14T23:33:14.711Z,0.22
2022-10-14T23:38:16.769Z,0.37
2022-10-14T23:43:19.251Z,0.30
2022-10-14T23:48:21.765Z,0.28
2022-10-14T23:53:26.311Z,0.45
2022-10-14T23:58:29.635Z,0.22
